createdAt,value
2019-01-11T00:00:01.338Z,65.30
2019-01-11T00:02:30.456Z,67.26
2019-01-11T00:04:59.553Z,67.32
2019-01-11T00:07:30.465Z,66.97
2019-01-11T00:09:59.565Z,67.51
2019-01-11T00:12:28.697Z,67.51
2019-01-11T00:14:59.043Z,66.68
2019-01-11T00:17:29.275Z,64.81
2019-01-11T00:20:03.697Z,65.34
2019-01-11T00:22:33.093Z,65.52
2019-01-11T00:25:02.177Z,64.35
2019-01-11T00:27:31.279Z,64.56
2019-01-11T00:30:03.019Z,65.19
2019-01-11T00:32:32.138Z,66.90
2019-01-11T00:35:01.258Z,66.24
2019-01-11T00:37:30.351Z,64.02
2019-01-11T00:40:00.727Z,63.83
2019-01-11T00:42:34.645Z,63.98
2019-01-11T00:45:05.608Z,62.96
2019-01-11T00:47:34.968Z,65.05
2019-01-11T00:50:06.564Z,66.29
2019-01-11T00:52:35.667Z,64.90
2019-01-11T00:55:07.086Z,63.55
2019-01-11T00:57:37.688Z,63.48
2019-01-11T01:00:12.071Z,66.57
2019-01-11T01:02:44.374Z,65.57
2019-01-11T01:05:13.668Z,65.33
2019-01-11T01:07:47.573Z,66.55
2019-01-11T01:10:21.021Z,66.92
2019-01-11T01:12:50.127Z,65.65
2019-01-11T01:15:21.628Z,64.70
2019-01-11T01:17:50.670Z,67.46
2019-01-11T01:20:19.862Z,67.02
2019-01-11T01:22:50.035Z,66.78
2019-01-11T01:25:19.323Z,66.52
2019-01-11T01:27:48.459Z,64.66
2019-01-11T01:30:18.537Z,65.50
2019-01-11T01:32:48.014Z,65.91
2019-01-11T01:35:19.662Z,67.93
2019-01-11T01:37:50.891Z,67.20
2019-01-11T01:40:19.756Z,66.45
2019-01-11T01:42:50.440Z,66.51
2019-01-11T01:45:21.846Z,65.20
2019-01-11T01:47:50.959Z,64.86
2019-01-11T01:50:23.776Z,66.10
2019-01-11T01:53:05.119Z,64.33
2019-01-11T01:55:34.208Z,63.88
2019-01-11T01:58:03.495Z,63.19
2019-01-11T02:00:33.703Z,62.66
2019-01-11T02:03:03.083Z,62.98
2019-01-11T02:05:35.148Z,62.52
2019-01-11T02:08:07.339Z,60.92
2019-01-11T02:10:36.429Z,62.41
2019-01-11T02:13:05.754Z,60.60
2019-01-11T02:15:36.715Z,60.66
2019-01-11T02:18:05.940Z,60.88
2019-01-11T02:20:36.138Z,61.01
2019-01-11T02:23:06.148Z,61.23
2019-01-11T02:25:36.368Z,60.45
2019-01-11T02:28:05.488Z,58.67
2019-01-11T02:30:36.684Z,61.56
2019-01-11T02:33:14.997Z,62.31
2019-01-11T02:35:44.092Z,60.84
2019-01-11T02:38:13.403Z,61.75
2019-01-11T02:40:44.235Z,61.75
2019-01-11T02:43:13.349Z,62.78
2019-01-11T02:45:42.443Z,62.83
2019-01-11T02:48:15.371Z,61.56
2019-01-11T02:50:44.510Z,61.80
2019-01-11T02:53:15.000Z,62.05
2019-01-11T02:55:44.050Z,60.96
2019-01-11T02:58:15.674Z,62.86
2019-01-11T03:00:45.183Z,62.37
2019-01-11T03:03:14.317Z,60.45
2019-01-11T03:05:43.534Z,62.88
2019-01-11T03:08:15.641Z,62.19
2019-01-11T03:10:48.491Z,62.60
2019-01-11T03:13:17.766Z,62.73
2019-01-11T03:15:52.685Z,60.00
2019-01-11T03:18:23.491Z,58.74
2019-01-11T03:20:58.402Z,58.34
2019-01-11T03:23:32.347Z,58.64
2019-01-11T03:26:01.693Z,59.80
2019-01-11T03:28:33.755Z,61.56
2019-01-11T03:31:12.702Z,59.10
2019-01-11T03:33:43.403Z,60.32
2019-01-11T03:36:12.571Z,61.21
2019-01-11T03:38:41.889Z,60.48
2019-01-11T03:41:11.100Z,63.50
2019-01-11T03:43:42.506Z,63.48
2019-01-11T03:46:14.363Z,62.80
2019-01-11T03:48:46.058Z,63.62
2019-01-11T03:51:17.033Z,64.83
2019-01-11T03:53:47.438Z,64.20
2019-01-11T03:56:18.590Z,62.97
2019-01-11T03:58:49.444Z,63.43
2019-01-11T04:01:20.539Z,62.76
2019-01-11T04:03:51.460Z,62.51
2019-01-11T04:06:20.572Z,61.52
2019-01-11T04:08:56.097Z,60.93
2019-01-11T04:11:36.436Z,60.35
2019-01-11T04:14:05.926Z,60.70
2019-01-11T04:16:35.036Z,61.95
2019-01-11T04:19:10.966Z,62.08
2019-01-11T04:21:42.916Z,61.74
2019-01-11T04:24:12.001Z,60.78
2019-01-11T04:26:42.321Z,61.70
2019-01-11T04:29:18.270Z,61.53
2019-01-11T04:31:49.890Z,61.84
2019-01-11T04:34:19.425Z,62.94
2019-01-11T04:36:48.535Z,62.00
2019-01-11T04:39:19.501Z,61.93
2019-01-11T04:41:49.716Z,60.72
2019-01-11T04:44:27.192Z,61.89
2019-01-11T04:46:57.728Z,62.86
2019-01-11T04:49:28.782Z,62.45
2019-01-11T04:52:03.611Z,62.87
2019-01-11T04:54:32.455Z,63.17
2019-01-11T04:57:01.544Z,62.68
2019-01-11T04:59:30.651Z,63.14
2019-01-11T05:01:59.753Z,64.17
2019-01-11T05:04:30.163Z,63.39
2019-01-11T05:07:00.773Z,65.10
2019-01-11T05:09:29.865Z,64.80
2019-01-11T05:11:59.108Z,63.28
2019-01-11T05:14:29.832Z,63.48
2019-01-11T05:16:58.957Z,63.62
2019-01-11T05:19:28.067Z,63.03
2019-01-11T05:21:57.186Z,64.26
2019-01-11T05:24:29.288Z,63.80
2019-01-11T05:26:58.765Z,63.44
2019-01-11T05:29:30.380Z,62.76
2019-01-11T05:31:59.920Z,63.69
2019-01-11T05:34:29.622Z,62.36
2019-01-11T05:37:02.240Z,63.45
2019-01-11T05:39:31.822Z,61.99
2019-01-11T05:42:02.533Z,64.79
2019-01-11T05:44:34.646Z,63.99
2019-01-11T05:47:04.275Z,63.50
2019-01-11T05:49:34.725Z,63.89
2019-01-11T05:52:04.211Z,63.78
2019-01-11T05:54:33.427Z,63.15
2019-01-11T05:57:03.755Z,63.60
2019-01-11T05:59:38.119Z,63.80
2019-01-11T06:02:07.624Z,62.79
2019-01-11T06:04:45.381Z,62.66
2019-01-11T06:07:38.357Z,63.71
2019-01-11T06:10:10.384Z,62.99
2019-01-11T06:12:39.474Z,63.09
2019-01-11T06:15:08.769Z,62.66
2019-01-11T06:17:40.483Z,63.10
2019-01-11T06:20:15.114Z,61.67
2019-01-11T06:22:53.362Z,62.26
2019-01-11T06:25:23.431Z,62.59
2019-01-11T06:27:52.874Z,62.43
2019-01-11T06:30:23.342Z,63.15
2019-01-11T06:32:54.879Z,62.09
2019-01-11T06:35:25.566Z,62.41
2019-01-11T06:38:04.044Z,60.85
2019-01-11T06:40:33.149Z,63.97
2019-01-11T06:43:03.650Z,63.57
2019-01-11T06:45:33.235Z,65.52
2019-01-11T06:48:02.586Z,65.82
2019-01-11T06:50:38.685Z,65.74
2019-01-11T06:53:10.498Z,64.48
2019-01-11T06:55:41.522Z,64.88
2019-01-11T06:58:13.545Z,65.04
2019-01-11T07:00:45.711Z,64.85
2019-01-11T07:03:15.102Z,65.07
2019-01-11T07:05:45.347Z,64.30
2019-01-11T07:08:16.930Z,65.31
2019-01-11T07:10:47.419Z,66.17
2019-01-11T07:13:17.529Z,67.19
2019-01-11T07:15:49.999Z,65.98
2019-01-11T07:18:19.150Z,66.92
2019-01-11T07:20:48.309Z,65.93
2019-01-11T07:23:19.138Z,66.18
2019-01-11T07:25:53.605Z,67.04
2019-01-11T07:28:24.346Z,67.27
2019-01-11T07:31:06.705Z,67.46
2019-01-11T07:33:37.861Z,68.13
2019-01-11T07:36:25.885Z,66.79
2019-01-11T07:38:56.520Z,67.68
2019-01-11T07:41:40.693Z,67.10
2019-01-11T07:44:10.090Z,67.06
2019-01-11T07:46:40.828Z,67.59
2019-01-11T07:49:11.734Z,67.08
2019-01-11T07:51:47.490Z,65.14
2019-01-11T07:54:19.789Z,67.21
2019-01-11T07:56:50.106Z,67.07
2019-01-11T07:59:22.566Z,67.13
2019-01-11T08:01:52.080Z,66.97
2019-01-11T08:04:21.438Z,68.29
2019-01-11T08:06:51.059Z,67.34
2019-01-11T08:09:24.416Z,65.06
2019-01-11T08:11:54.781Z,64.96
2019-01-11T08:14:24.033Z,63.62
2019-01-11T08:16:56.099Z,65.72
2019-01-11T08:19:25.248Z,66.67
2019-01-11T08:21:54.601Z,65.45
2019-01-11T08:24:25.349Z,64.80
2019-01-11T08:27:11.684Z,66.40
2019-01-11T08:29:43.596Z,66.91
2019-01-11T08:32:12.761Z,64.80
2019-01-11T08:34:43.658Z,65.00
2019-01-11T08:37:16.075Z,65.05
2019-01-11T08:39:45.485Z,68.07
2019-01-11T08:42:20.557Z,67.29
2019-01-11T08:44:50.156Z,67.58
2019-01-11T08:47:19.265Z,67.88
2019-01-11T08:49:48.511Z,66.59
2019-01-11T08:52:17.640Z,67.52
2019-01-11T08:54:46.993Z,67.31
2019-01-11T08:57:17.656Z,66.31
2019-01-11T08:59:48.244Z,64.25
2019-01-11T09:02:20.700Z,65.52
2019-01-11T09:04:50.053Z,66.19
2019-01-11T09:07:20.365Z,67.69
2019-01-11T09:09:49.834Z,67.33
2019-01-11T09:12:21.007Z,68.31
2019-01-11T09:14:55.923Z,68.30
2019-01-11T09:17:28.174Z,67.11
2019-01-11T09:19:57.342Z,67.56
2019-01-11T09:22:26.494Z,66.86
2019-01-11T09:24:56.971Z,65.96
2019-01-11T09:27:26.073Z,66.99
2019-01-11T09:29:58.243Z,68.58
2019-01-11T09:32:33.543Z,67.50
2019-01-11T09:35:03.044Z,67.22
2019-01-11T09:37:35.996Z,68.27
2019-01-11T09:40:16.198Z,68.93
2019-01-11T09:42:52.008Z,68.28
2019-01-11T09:45:21.918Z,68.68
2019-01-11T09:47:52.170Z,68.71
2019-01-11T09:50:22.839Z,69.47
2019-01-11T09:52:51.923Z,70.36
2019-01-11T09:55:21.304Z,68.13
2019-01-11T09:57:52.627Z,68.22
2019-01-11T10:00:24.675Z,69.50
2019-01-11T10:03:05.061Z,68.58
2019-01-11T10:05:51.340Z,68.10
2019-01-11T10:08:27.230Z,67.82
2019-01-11T10:10:57.442Z,66.21
2019-01-11T10:13:28.201Z,67.73
2019-01-11T10:16:00.592Z,67.81
2019-01-11T10:18:29.871Z,66.47
2019-01-11T10:20:58.989Z,65.28
2019-01-11T10:23:28.449Z,65.76
2019-01-11T10:25:59.729Z,65.48
2019-01-11T10:28:28.882Z,68.16
2019-01-11T10:31:00.774Z,69.07
2019-01-11T10:33:36.329Z,68.97
2019-01-11T10:36:04.854Z,69.65
2019-01-11T10:38:39.198Z,69.64
2019-01-11T10:41:08.458Z,69.50
2019-01-11T10:43:38.081Z,68.66
2019-01-11T10:46:20.817Z,69.34
2019-01-11T10:48:49.915Z,69.15
2019-01-11T10:51:20.538Z,68.87
2019-01-11T10:53:50.842Z,69.33
2019-01-11T10:56:20.138Z,69.50
2019-01-11T10:58:54.712Z,68.50
2019-01-11T11:01:24.069Z,67.51
2019-01-11T11:03:55.598Z,68.77
2019-01-11T11:06:31.458Z,70.22
2019-01-11T11:09:04.790Z,70.30
2019-01-11T11:11:46.034Z,70.64
2019-01-11T11:14:15.128Z,69.31
2019-01-11T11:16:44.397Z,69.83
2019-01-11T11:19:14.810Z,69.60
2019-01-11T11:21:47.750Z,69.77
2019-01-11T11:24:17.464Z,69.70
2019-01-11T11:26:50.362Z,70.99
2019-01-11T11:29:19.540Z,70.27
2019-01-11T11:31:51.655Z,71.12
2019-01-11T11:34:27.890Z,69.85
2019-01-11T11:37:05.691Z,69.48
2019-01-11T11:39:34.953Z,69.81
2019-01-11T11:42:04.188Z,69.14
2019-01-11T11:44:34.766Z,67.60
2019-01-11T11:47:05.835Z,68.56
2019-01-11T11:49:35.027Z,69.55
2019-01-11T11:52:05.650Z,71.61
2019-01-11T11:54:43.177Z,70.75
2019-01-11T11:57:19.656Z,70.79
2019-01-11T11:59:50.257Z,70.99
2019-01-11T12:02:19.491Z,70.32
2019-01-11T12:04:48.566Z,71.04
2019-01-11T12:07:17.682Z,70.20
2019-01-11T12:09:50.828Z,71.50
2019-01-11T12:12:25.573Z,72.71
2019-01-11T12:14:55.163Z,72.36
2019-01-11T12:17:26.515Z,72.78
2019-01-11T12:19:57.198Z,74.29
2019-01-11T12:22:27.342Z,73.10
2019-01-11T12:24:59.443Z,73.48
2019-01-11T12:27:28.826Z,73.57
2019-01-11T12:30:01.559Z,73.59
2019-01-11T12:32:33.484Z,75.74
2019-01-11T12:35:02.993Z,74.66
2019-01-11T12:37:38.233Z,75.72
2019-01-11T12:40:08.584Z,75.67
2019-01-11T12:42:41.485Z,74.53
2019-01-11T12:45:14.481Z,75.13
2019-01-11T12:47:44.427Z,75.39
2019-01-11T12:50:26.576Z,74.90
2019-01-11T12:52:57.057Z,74.51
2019-01-11T12:55:27.701Z,74.80
2019-01-11T12:57:56.869Z,74.26
2019-01-11T13:00:26.333Z,72.70
2019-01-11T13:03:01.667Z,73.51
2019-01-11T13:05:36.295Z,74.38
2019-01-11T13:08:06.426Z,74.18
2019-01-11T13:10:39.866Z,74.51
2019-01-11T13:13:11.092Z,74.23
2019-01-11T13:15:43.948Z,73.25
2019-01-11T13:18:16.591Z,73.68
2019-01-11T13:20:47.040Z,74.16
2019-01-11T13:23:19.951Z,73.67
2019-01-11T13:25:50.859Z,73.85
2019-01-11T13:28:26.604Z,74.35
2019-01-11T13:30:55.904Z,75.30
2019-01-11T13:33:45.652Z,75.75
2019-01-11T13:36:24.294Z,74.49
2019-01-11T13:38:56.657Z,72.34
2019-01-11T13:41:27.387Z,73.34
2019-01-11T13:43:59.533Z,74.27
2019-01-11T13:46:31.549Z,75.53
2019-01-11T13:49:00.965Z,74.97
2019-01-11T13:51:30.240Z,74.60
2019-01-11T13:54:03.614Z,73.76
2019-01-11T13:56:40.856Z,75.16
2019-01-11T13:59:11.312Z,75.86
2019-01-11T14:01:42.118Z,75.44
2019-01-11T14:04:11.790Z,75.42
2019-01-11T14:06:46.251Z,75.48
2019-01-11T14:09:20.179Z,74.58
2019-01-11T14:11:51.958Z,74.03
2019-01-11T14:14:22.478Z,74.25
2019-01-11T14:16:55.000Z,75.25
2019-01-11T14:19:25.632Z,75.70
2019-01-11T14:21:59.949Z,75.84
2019-01-11T14:24:30.430Z,75.31
2019-01-11T14:27:00.613Z,73.26
2019-01-11T14:29:31.381Z,74.38
2019-01-11T14:32:00.829Z,73.93
2019-01-11T14:34:31.989Z,75.38
2019-01-11T14:37:09.561Z,75.71
2019-01-11T14:39:39.024Z,74.50
2019-01-11T14:42:12.118Z,74.42
2019-01-11T14:44:43.528Z,74.54
2019-01-11T14:47:12.667Z,74.43
2019-01-11T14:49:43.059Z,73.24
2019-01-11T14:52:13.351Z,75.04
2019-01-11T14:54:42.822Z,74.90
2019-01-11T14:57:13.420Z,74.05
2019-01-11T14:59:44.972Z,75.00
2019-01-11T15:02:14.187Z,76.07
2019-01-11T15:04:47.473Z,75.79
2019-01-11T15:07:19.935Z,74.51
2019-01-11T15:09:49.089Z,74.95
2019-01-11T15:12:18.227Z,74.99
2019-01-11T15:14:47.357Z,73.54
2019-01-11T15:17:17.575Z,72.77
2019-01-11T15:19:48.618Z,73.17
2019-01-11T15:22:19.000Z,72.88
2019-01-11T15:24:50.662Z,73.85
2019-01-11T15:27:23.953Z,74.08
2019-01-11T15:29:53.709Z,72.03
2019-01-11T15:32:27.796Z,72.19
2019-01-11T15:35:00.813Z,73.54
2019-01-11T15:37:30.209Z,73.38
2019-01-11T15:40:03.593Z,73.20
2019-01-11T15:42:33.403Z,74.18
2019-01-11T15:45:04.234Z,75.64
2019-01-11T15:47:33.350Z,74.27
2019-01-11T15:50:04.005Z,72.79
2019-01-11T15:52:33.684Z,74.69
2019-01-11T15:55:06.366Z,75.84
2019-01-11T15:57:43.290Z,75.20
2019-01-11T16:00:24.350Z,75.39
2019-01-11T16:03:00.994Z,76.55
2019-01-11T16:05:32.730Z,77.03
2019-01-11T16:08:01.819Z,76.82
2019-01-11T16:10:34.687Z,76.72
2019-01-11T16:13:19.675Z,78.13
2019-01-11T16:16:16.732Z,75.98
2019-01-11T16:18:45.951Z,78.10
2019-01-11T16:21:15.426Z,78.39
2019-01-11T16:23:46.389Z,78.43
2019-01-11T16:26:15.530Z,78.50
2019-01-11T16:28:52.109Z,78.57
2019-01-11T16:31:21.448Z,78.55
2019-01-11T16:33:53.494Z,80.01
2019-01-11T16:36:25.617Z,79.76
2019-01-11T16:38:56.563Z,80.09
2019-01-11T16:41:27.028Z,80.08
2019-01-11T16:43:56.560Z,79.64
2019-01-11T16:46:26.785Z,78.64
2019-01-11T16:48:55.957Z,78.69
2019-01-11T16:51:28.581Z,77.56
2019-01-11T16:53:57.716Z,77.24
2019-01-11T16:56:31.201Z,77.20
2019-01-11T16:59:02.142Z,78.07
2019-01-11T17:01:32.272Z,78.47
2019-01-11T17:04:05.052Z,77.53
2019-01-11T17:06:35.503Z,78.31
2019-01-11T17:09:07.136Z,77.45
2019-01-11T17:11:36.234Z,77.44
2019-01-11T17:14:06.320Z,76.69
2019-01-11T17:16:35.620Z,76.72
2019-01-11T17:19:08.312Z,77.25
2019-01-11T17:21:38.635Z,77.01
2019-01-11T17:24:09.486Z,77.56
2019-01-11T17:26:38.599Z,77.72
2019-01-11T17:29:07.779Z,78.13
2019-01-11T17:31:37.875Z,76.61
2019-01-11T17:34:08.411Z,76.81
2019-01-11T17:36:46.517Z,77.02
2019-01-11T17:39:18.887Z,77.07
2019-01-11T17:41:49.538Z,77.53
2019-01-11T17:44:18.721Z,77.60
2019-01-11T17:46:52.899Z,77.37
2019-01-11T17:49:22.031Z,77.74
2019-01-11T17:51:51.165Z,77.14
2019-01-11T17:54:21.428Z,76.69
2019-01-11T17:56:51.769Z,77.66
2019-01-11T17:59:25.616Z,77.43
2019-01-11T18:02:09.375Z,78.10
2019-01-11T18:04:38.496Z,78.16
2019-01-11T18:07:08.472Z,78.26
2019-01-11T18:09:37.591Z,79.11
2019-01-11T18:12:06.722Z,79.21
2019-01-11T18:14:35.882Z,80.03
2019-01-11T18:17:05.092Z,79.88
2019-01-11T18:19:34.260Z,79.95
2019-01-11T18:22:03.390Z,79.53
2019-01-11T18:24:35.015Z,79.91
2019-01-11T18:27:04.174Z,80.20
2019-01-11T18:29:33.289Z,80.31
2019-01-11T18:32:03.615Z,80.50
2019-01-11T18:34:35.393Z,79.45
2019-01-11T18:37:11.970Z,78.94
2019-01-11T18:39:44.413Z,79.96
2019-01-11T18:42:14.582Z,78.46
2019-01-11T18:44:43.685Z,77.80
2019-01-11T18:50:13.933Z,78.96
2019-01-11T18:52:43.076Z,77.15
2019-01-11T18:55:12.197Z,77.55
2019-01-11T18:57:46.455Z,78.11
2019-01-11T19:00:23.757Z,77.32
2019-01-11T19:02:53.043Z,77.40
2019-01-11T19:05:22.584Z,76.86
2019-01-11T19:07:58.767Z,76.16
2019-01-11T19:10:27.991Z,76.62
2019-01-11T19:12:57.377Z,78.08
2019-01-11T19:15:28.606Z,76.50
2019-01-11T19:17:59.521Z,77.55
2019-01-11T19:20:31.339Z,77.55
2019-01-11T19:23:06.030Z,76.86
2019-01-11T19:25:35.667Z,76.46
2019-01-11T19:28:05.997Z,76.34
2019-01-11T19:30:44.458Z,77.37
2019-01-11T19:33:13.633Z,76.20
2019-01-11T19:35:44.736Z,75.35
2019-01-11T19:38:15.324Z,75.91
2019-01-11T19:40:46.754Z,76.00
2019-01-11T19:43:17.279Z,75.79
2019-01-11T19:45:48.263Z,74.15
2019-01-11T19:48:20.970Z,74.00
2019-01-11T19:50:52.129Z,73.51
2019-01-11T19:53:27.231Z,73.50
2019-01-11T19:55:58.546Z,72.85
2019-01-11T19:58:24.728Z,71.48
2019-01-11T20:00:56.126Z,72.48
2019-01-11T20:03:26.134Z,72.38
2019-01-11T20:05:55.390Z,72.24
2019-01-11T20:08:24.527Z,72.43
2019-01-11T20:10:54.856Z,72.79
2019-01-11T20:13:27.612Z,71.43
2019-01-11T20:15:56.972Z,71.67
2019-01-11T20:18:29.684Z,72.20
2019-01-11T20:20:58.935Z,72.95
2019-01-11T20:23:34.482Z,73.91
2019-01-11T20:26:00.336Z,72.29
2019-01-11T20:28:32.136Z,73.52
2019-01-11T20:31:02.664Z,74.93
2019-01-11T20:33:32.110Z,74.28
2019-01-11T20:36:01.313Z,74.89
2019-01-11T20:38:30.461Z,74.82
2019-01-11T20:40:59.597Z,74.72
2019-01-11T20:43:28.725Z,75.15
2019-01-11T20:46:03.205Z,73.34
2019-01-11T20:48:32.335Z,74.32
2019-01-11T20:51:01.525Z,72.83
2019-01-11T20:53:30.739Z,73.71
2019-01-11T20:56:03.488Z,74.49
2019-01-11T20:58:32.629Z,75.39
2019-01-11T21:01:02.624Z,73.67
2019-01-11T21:03:31.798Z,75.27
2019-01-11T21:06:00.903Z,76.20
2019-01-11T21:08:31.141Z,75.97
2019-01-11T21:11:04.410Z,77.31
2019-01-11T21:13:37.310Z,77.43
2019-01-11T21:16:07.120Z,77.85
2019-01-11T21:18:36.513Z,77.55
2019-01-11T21:21:09.086Z,77.97
2019-01-11T21:23:38.208Z,77.82
2019-01-11T21:26:11.786Z,77.53
2019-01-11T21:28:46.450Z,78.35
2019-01-11T21:31:15.924Z,78.10
2019-01-11T21:33:49.524Z,79.39
2019-01-11T21:36:20.707Z,77.47
2019-01-11T21:38:49.835Z,78.39
2019-01-11T21:41:18.928Z,78.97
2019-01-11T21:43:48.054Z,79.56
2019-01-11T21:46:19.621Z,76.56
2019-01-11T21:48:49.284Z,78.22
2019-01-11T21:51:18.396Z,79.48
2019-01-11T21:53:55.732Z,78.91
2019-01-11T21:56:22.274Z,79.38
2019-01-11T21:58:54.827Z,79.78
2019-01-11T22:01:30.331Z,79.62
2019-01-11T22:03:59.641Z,79.86
2019-01-11T22:06:34.224Z,78.75
2019-01-11T22:09:04.823Z,78.84
2019-01-11T22:11:35.947Z,77.38
2019-01-11T22:14:05.524Z,77.17
2019-01-11T22:16:35.058Z,77.09
2019-01-11T22:19:04.552Z,77.23
2019-01-11T22:21:33.664Z,77.34
2019-01-11T22:24:03.496Z,78.41
2019-01-11T22:26:33.480Z,77.98
2019-01-11T22:29:08.151Z,78.02
2019-01-11T22:31:42.733Z,78.06
2019-01-11T22:34:17.586Z,78.67
2019-01-11T22:36:46.782Z,79.75
2019-01-11T22:39:16.061Z,79.32
2019-01-11T22:41:45.214Z,80.05
2019-01-11T22:44:14.365Z,80.88
2019-01-11T22:46:43.658Z,80.76
2019-01-11T22:49:12.758Z,81.27
2019-01-11T22:51:41.898Z,81.76
2019-01-11T22:54:13.441Z,81.30
2019-01-11T22:56:42.583Z,82.25
2019-01-11T22:59:13.871Z,81.86
2019-01-11T23:02:05.241Z,82.42
2019-01-11T23:04:43.584Z,83.76
2019-01-11T23:07:28.246Z,83.87
2019-01-11T23:10:32.324Z,83.55
2019-01-11T23:13:06.862Z,83.14
2019-01-11T23:16:01.705Z,83.31
2019-01-11T23:18:34.004Z,82.94
2019-01-11T23:21:09.816Z,82.91
2019-01-11T23:23:43.427Z,83.35
2019-01-11T23:26:14.685Z,83.93
2019-01-11T23:28:47.046Z,83.54
2019-01-11T23:31:16.459Z,83.55
2019-01-11T23:33:50.830Z,84.06
2019-01-11T23:36:19.961Z,83.42
2019-01-11T23:38:49.255Z,82.78
2019-01-11T23:41:31.575Z,83.76
2019-01-11T23:44:00.695Z,84.68
2019-01-11T23:46:29.795Z,83.96
2019-01-11T23:49:00.222Z,83.22
2019-01-11T23:51:31.771Z,83.84
2019-01-11T23:54:00.903Z,82.48
2019-01-11T23:56:30.006Z,83.63
2019-01-11T23:59:00.911Z,83.24
